Time;durP1;ratioP1;P1;durP2;ratioP2;P2;SDS_P1;SDS_P2;PMS_P1;PMS_P2;Temp;Humidity;BMP_temperature;BMP_pressure;BME280_temperature;BME280_humidity;BME280_pressure;Samples;Min_cycle;Max_cycle;Signal;HPM_P1;HPM_P2
2023/08/02 00:00:54;;;;;;;2.47;1.83;;;22.30;67.20;;;;;;5074969;28;20209;-72
2023/08/02 00:03:25;;;;;;;2.33;2.03;;;22.30;68.10;;;;;;5075437;28;20232;-72
2023/08/02 00:05:56;;;;;;;2.13;1.63;;;22.30;67.30;;;;;;5074667;28;20209;-71
2023/08/02 00:08:25;;;;;;;2.30;1.80;;;22.30;67.50;;;;;;5075000;28;20232;-72
2023/08/02 00:10:53;;;;;;;4.33;2.03;;;22.20;67.50;;;;;;5075050;28;20209;-72
2023/08/02 00:13:33;;;;;;;2.03;1.70;;;22.20;67.50;;;;;;5074837;28;20205;-72
2023/08/02 00:16:00;;;;;;;3.50;2.00;;;22.20;67.60;;;;;;5074542;28;20203;-72
2023/08/02 00:18:28;;;;;;;3.87;2.20;;;22.20;67.60;;;;;;5074473;28;20201;-72
2023/08/02 00:20:59;;;;;;;3.33;2.10;;;22.20;67.60;;;;;;5072069;28;20319;-71
2023/08/02 00:23:29;;;;;;;3.17;1.90;;;22.20;67.90;;;;;;5075074;28;20287;-71
2023/08/02 00:25:58;;;;;;;2.90;1.70;;;22.10;68.00;;;;;;5074389;28;20307;-71
2023/08/02 00:28:28;;;;;;;2.70;1.80;;;22.10;68.00;;;;;;5074566;28;20645;-71
2023/08/02 00:30:58;;;;;;;2.93;1.90;;;22.10;68.00;;;;;;5074211;28;20197;-71
2023/08/02 00:33:27;;;;;;;2.43;2.10;;;22.10;67.90;;;;;;5074838;28;20207;-71
2023/08/02 00:35:58;;;;;;;3.70;1.97;;;22.20;68.80;;;;;;5074142;28;20201;-71
2023/08/02 00:38:27;;;;;;;3.27;2.13;;;22.20;68.00;;;;;;5074553;28;20303;-71
2023/08/02 00:41:04;;;;;;;3.23;1.87;;;22.20;67.70;;;;;;5074135;28;20217;-72
2023/08/02 00:43:37;;;;;;;2.57;1.90;;;22.20;67.70;;;;;;5074290;28;20590;-72
2023/08/02 00:46:08;;;;;;;2.00;1.70;;;22.20;67.60;;;;;;5074025;28;20685;-72
2023/08/02 00:48:35;;;;;;;3.47;1.90;;;22.20;67.50;;;;;;5074525;28;20201;-72
2023/08/02 00:51:07;;;;;;;1.90;1.60;;;22.20;67.40;;;;;;5073787;28;20216;-72
2023/08/02 00:53:38;;;;;;;2.43;1.97;;;22.20;67.50;;;;;;5074139;28;20189;-72
2023/08/02 00:56:06;;;;;;;3.93;1.87;;;22.20;67.60;;;;;;5054172;28;20226;-72
2023/08/02 00:58:36;;;;;;;2.73;1.73;;;22.20;67.60;;;;;;5054057;28;20205;-71
2023/08/02 01:01:07;;;;;;;5.47;2.30;;;22.20;67.60;;;;;;5072185;28;20232;-72
2023/08/02 01:03:35;;;;;;;2.70;2.20;;;22.20;67.70;;;;;;5074438;28;20185;-72
2023/08/02 01:06:12;;;;;;;2.40;1.57;;;22.20;67.90;;;;;;5072970;28;20220;-72
2023/08/02 01:08:43;;;;;;;2.77;2.53;;;22.10;67.90;;;;;;5073985;28;20243;-71
2023/08/02 01:11:20;;;;;;;2.20;2.00;;;22.10;67.90;;;;;;5073324;28;20211;-71
2023/08/02 01:13:50;;;;;;;3.53;2.30;;;22.10;68.00;;;;;;5074064;28;20217;-71
2023/08/02 01:16:18;;;;;;;4.03;1.90;;;22.10;67.70;;;;;;5073658;28;20669;-71
2023/08/02 01:18:52;;;;;;;3.47;2.20;;;22.10;68.60;;;;;;5072669;28;20225;-71
2023/08/02 01:21:22;;;;;;;2.80;1.77;;;22.10;67.70;;;;;;5074948;28;20695;-71
2023/08/02 01:23:49;;;;;;;3.37;1.83;;;22.10;67.90;;;;;;5080727;28;20208;-71
2023/08/02 01:26:16;;;;;;;2.40;1.93;;;22.10;68.00;;;;;;5074783;28;20217;-71
2023/08/02 01:28:45;;;;;;;4.13;2.00;;;22.10;67.90;;;;;;5074325;28;20217;-72
2023/08/02 01:31:16;;;;;;;2.33;1.80;;;22.10;68.00;;;;;;5075776;28;20256;-72
2023/08/02 01:33:49;;;;;;;2.73;1.70;;;22.10;68.00;;;;;;5074578;28;20227;-71
2023/08/02 01:36:21;;;;;;;4.67;1.97;;;22.10;68.10;;;;;;5065081;28;20548;-71
2023/08/02 01:38:52;;;;;;;3.00;1.90;;;22.10;68.00;;;;;;5072900;28;20205;-71
2023/08/02 01:41:20;;;;;;;2.47;1.80;;;22.00;68.00;;;;;;5073646;28;20247;-71
2023/08/02 01:43:54;;;;;;;2.37;1.90;;;22.00;68.10;;;;;;5072788;28;20213;-72
2023/08/02 01:46:24;;;;;;;3.03;1.90;;;22.00;68.30;;;;;;5073583;28;20212;-72
2023/08/02 01:48:53;;;;;;;4.00;2.17;;;22.00;68.30;;;;;;5072745;28;20201;-72
2023/08/02 01:51:19;;;;;;;3.07;2.00;;;22.00;68.30;;;;;;5073153;28;20259;-71
2023/08/02 01:53:50;;;;;;;2.50;1.50;;;22.00;68.30;;;;;;5072956;28;20229;-72
2023/08/02 01:56:21;;;;;;;2.17;1.60;;;22.00;68.30;;;;;;5072960;28;20208;-72
2023/08/02 01:58:49;;;;;;;2.73;1.73;;;22.00;68.40;;;;;;5073155;28;20229;-71
2023/08/02 02:01:19;;;;;;;3.50;2.10;;;22.00;68.50;;;;;;5072744;28;20209;-71
2023/08/02 02:03:48;;;;;;;2.60;1.83;;;22.00;68.50;;;;;;5072588;28;20207;-71
2023/08/02 02:06:19;;;;;;;1.80;1.50;;;22.00;68.70;;;;;;5072544;28;20826;-71
2023/08/02 02:08:48;;;;;;;2.83;1.73;;;22.00;68.90;;;;;;5072702;28;20246;-71
2023/08/02 02:11:20;;;;;;;2.60;2.07;;;22.00;68.60;;;;;;5072590;28;20230;-72
2023/08/02 02:13:46;;;;;;;2.60;1.83;;;22.00;68.80;;;;;;5072694;28;20204;-71
2023/08/02 02:16:13;;;;;;;3.10;1.90;;;22.00;69.00;;;;;;5073017;28;20586;-71
2023/08/02 02:18:43;;;;;;;2.50;1.97;;;22.00;68.80;;;;;;5072066;28;20248;-71
2023/08/02 02:21:13;;;;;;;1.97;1.70;;;22.00;68.80;;;;;;5072668;28;20208;-71
2023/08/02 02:23:42;;;;;;;2.07;1.87;;;22.00;68.90;;;;;;5072415;28;20204;-71
2023/08/02 02:26:12;;;;;;;3.43;2.00;;;22.00;69.10;;;;;;5072525;28;20697;-71
2023/08/02 02:28:43;;;;;;;3.13;1.93;;;22.00;69.30;;;;;;5072752;28;20578;-73
2023/08/02 02:31:12;;;;;;;3.67;1.57;;;22.00;69.60;;;;;;5072328;28;20189;-72
2023/08/02 02:33:45;;;;;;;3.67;1.70;;;22.00;69.70;;;;;;5072709;28;20225;-72
2023/08/02 02:36:15;;;;;;;3.27;1.90;;;22.00;69.70;;;;;;5072436;28;20205;-72
2023/08/02 02:38:44;;;;;;;2.27;1.77;;;22.00;70.10;;;;;;5072640;28;20201;-72
2023/08/02 02:41:14;;;;;;;2.70;1.87;;;22.00;70.30;;;;;;5072231;28;20189;-72
2023/08/02 02:43:45;;;;;;;2.17;1.60;;;22.00;71.10;;;;;;5059387;28;20221;-72
2023/08/02 02:46:12;;;;;;;2.57;2.30;;;22.00;70.70;;;;;;5072151;28;20669;-72
2023/08/02 02:48:42;;;;;;;1.70;1.47;;;22.00;70.70;;;;;;5072596;28;20205;-72
2023/08/02 02:51:11;;;;;;;2.63;1.70;;;22.00;70.70;;;;;;5072306;28;20217;-73
2023/08/02 02:53:41;;;;;;;3.27;2.10;;;22.00;71.10;;;;;;5072086;28;20211;-71
2023/08/02 02:56:10;;;;;;;1.87;1.63;;;22.00;71.90;;;;;;5075511;28;20559;-71
2023/08/02 02:58:39;;;;;;;4.13;1.60;;;22.00;71.10;;;;;;5076704;28;20256;-71
2023/08/02 03:01:10;;;;;;;3.43;1.60;;;22.00;71.40;;;;;;5075620;28;20216;-71
2023/08/02 03:03:40;;;;;;;1.90;1.50;;;22.00;71.90;;;;;;5076480;28;20233;-71
2023/08/02 03:06:10;;;;;;;4.80;2.10;;;22.00;72.10;;;;;;5076322;28;20219;-71
2023/08/02 03:08:39;;;;;;;3.40;2.10;;;22.00;72.80;;;;;;5076153;28;20213;-72
2023/08/02 03:11:18;;;;;;;3.03;1.90;;;22.00;71.70;;;;;;5075879;28;20193;-71
2023/08/02 03:13:48;;;;;;;3.00;2.00;;;22.00;72.20;;;;;;5076517;28;20640;-71
2023/08/02 03:16:19;;;;;;;3.90;1.90;;;22.00;72.90;;;;;;5075893;28;20212;-71
2023/08/02 03:18:49;;;;;;;2.93;2.30;;;22.00;72.60;;;;;;5075717;28;20189;-71
2023/08/02 03:21:18;;;;;;;2.60;1.90;;;22.00;72.70;;;;;;5075421;28;20220;-71
2023/08/02 03:23:46;;;;;;;4.13;1.90;;;22.00;72.60;;;;;;5075896;28;20454;-71
2023/08/02 03:26:13;;;;;;;2.50;1.80;;;22.00;72.90;;;;;;5075098;28;20239;-71
2023/08/02 03:28:42;;;;;;;3.37;1.60;;;22.00;73.00;;;;;;5076150;28;20193;-72
2023/08/02 03:31:12;;;;;;;3.07;1.83;;;21.90;73.10;;;;;;5075277;28;20213;-73
2023/08/02 03:33:42;;;;;;;3.27;1.93;;;21.90;73.20;;;;;;5075804;28;20724;-72
2023/08/02 03:36:11;;;;;;;2.63;2.10;;;21.90;73.30;;;;;;5075652;28;20215;-72
2023/08/02 03:38:41;;;;;;;2.33;1.73;;;21.80;73.20;;;;;;5075883;28;20247;-73
2023/08/02 03:41:10;;;;;;;3.27;1.80;;;21.80;73.40;;;;;;5075206;28;20580;-72
2023/08/02 03:43:39;;;;;;;3.33;1.90;;;21.80;73.50;;;;;;5075130;28;20236;-72
2023/08/02 03:46:06;;;;;;;3.87;2.30;;;21.80;73.50;;;;;;5075452;28;20223;-72
2023/08/02 03:48:33;;;;;;;3.47;2.20;;;21.70;73.30;;;;;;5075702;28;20575;-73
2023/08/02 03:51:02;;;;;;;2.80;2.17;;;21.70;73.50;;;;;;5075267;28;20216;-72
2023/08/02 03:53:31;;;;;;;3.60;2.60;;;21.70;72.00;;;;;;5075628;28;20197;-72
2023/08/02 03:56:01;;;;;;;4.77;2.10;;;21.70;71.90;;;;;;5075286;28;20225;-71
2023/08/02 03:58:27;;;;;;;2.70;2.20;;;21.70;72.00;;;;;;5074899;28;20216;-71
2023/08/02 04:00:54;;;;;;;2.40;2.00;;;21.80;72.60;;;;;;5074846;28;20862;-71
2023/08/02 04:03:26;;;;;;;4.07;2.40;;;21.70;73.00;;;;;;5075413;28;20205;-71
2023/08/02 04:05:52;;;;;;;5.93;2.30;;;21.70;73.50;;;;;;5074497;28;20201;-71
2023/08/02 04:08:21;;;;;;;2.83;2.33;;;21.60;74.10;;;;;;5075089;28;20695;-71
2023/08/02 04:10:50;;;;;;;3.37;2.03;;;21.60;74.50;;;;;;5074889;28;20198;-71
2023/08/02 04:13:20;;;;;;;3.20;2.20;;;21.50;75.20;;;;;;5075148;28;20205;-71
2023/08/02 04:15:49;;;;;;;5.70;2.27;;;21.50;75.90;;;;;;5074816;28;20699;-71
2023/08/02 04:18:19;;;;;;;3.60;2.47;;;21.50;76.50;;;;;;5074859;28;20739;-71
2023/08/02 04:20:48;;;;;;;2.43;2.00;;;21.50;76.90;;;;;;5074542;28;20224;-72
2023/08/02 04:23:17;;;;;;;3.73;1.93;;;21.40;77.40;;;;;;5074545;28;20694;-71
2023/08/02 04:25:45;;;;;;;2.77;2.10;;;21.40;77.80;;;;;;5075244;28;20186;-72
2023/08/02 04:28:18;;;;;;;5.97;3.13;;;21.40;78.30;;;;;;5074252;28;20229;-71
2023/08/02 04:30:52;;;;;;;2.73;2.10;;;21.40;78.70;;;;;;5074204;28;20197;-71
2023/08/02 04:33:25;;;;;;;3.43;2.13;;;21.40;79.30;;;;;;5074873;28;20188;-71
2023/08/02 04:35:54;;;;;;;4.50;2.10;;;21.50;79.50;;;;;;5074541;28;20232;-71
2023/08/02 04:38:21;;;;;;;2.30;1.90;;;21.60;79.80;;;;;;5074435;28;20205;-71
2023/08/02 04:40:49;;;;;;;2.47;2.13;;;21.50;79.70;;;;;;5073893;28;20225;-71
2023/08/02 04:43:18;;;;;;;3.47;2.33;;;21.50;80.00;;;;;;5095367;28;20206;-72
2023/08/02 04:45:48;;;;;;;2.43;2.20;;;21.50;79.70;;;;;;5053429;28;20538;-71
2023/08/02 04:48:17;;;;;;;2.63;2.00;;;21.50;80.40;;;;;;5054514;28;20228;-71
2023/08/02 04:50:47;;;;;;;3.63;2.00;;;21.60;80.60;;;;;;5058083;28;20209;-72
2023/08/02 04:53:14;;;;;;;2.70;2.50;;;21.60;80.70;;;;;;5106041;28;20236;-71
2023/08/02 04:55:44;;;;;;;3.90;2.20;;;21.60;81.00;;;;;;5074455;28;20201;-72
2023/08/02 04:58:12;;;;;;;2.87;2.37;;;21.70;81.20;;;;;;5074014;28;20232;-71
2023/08/02 05:00:42;;;;;;;3.17;2.20;;;21.70;81.70;;;;;;5073646;28;20695;-71
2023/08/02 05:03:17;;;;;;;2.83;2.40;;;21.70;81.30;;;;;;5073626;28;20201;-72
2023/08/02 05:05:45;;;;;;;3.00;2.40;;;21.60;81.50;;;;;;5074335;28;20553;-71
2023/08/02 05:08:15;;;;;;;2.90;2.23;;;21.50;82.00;;;;;;5074151;28;20315;-71
2023/08/02 05:10:41;;;;;;;3.53;2.37;;;21.50;82.30;;;;;;5073478;28;20292;-72
2023/08/02 05:13:11;;;;;;;2.87;2.53;;;21.50;82.90;;;;;;5073759;28;20563;-72
2023/08/02 05:15:39;;;;;;;4.33;3.03;;;21.50;83.10;;;;;;5073213;28;20228;-71
2023/08/02 05:18:08;;;;;;;2.83;2.40;;;21.50;83.30;;;;;;5072978;28;20296;-71
2023/08/02 05:20:51;;;;;;;3.70;2.43;;;21.60;83.40;;;;;;5053360;28;20316;-71
2023/08/02 05:23:23;;;;;;;6.10;3.50;;;21.50;83.60;;;;;;5053170;28;20232;-72
2023/08/02 05:26:01;;;;;;;6.10;3.40;;;21.60;84.10;;;;;;5061735;28;20205;-72
2023/08/02 05:28:27;;;;;;;3.63;2.50;;;21.60;84.20;;;;;;5073835;28;20213;-71
2023/08/02 05:30:57;;;;;;;4.20;2.30;;;21.60;84.80;;;;;;5073509;28;20209;-72
2023/08/02 05:33:27;;;;;;;2.87;2.40;;;21.70;85.00;;;;;;5073488;28;20228;-72
2023/08/02 05:35:55;;;;;;;3.10;2.53;;;21.70;85.00;;;;;;5073366;28;20208;-71
2023/08/02 05:38:25;;;;;;;4.40;2.50;;;21.70;84.80;;;;;;5073123;28;20311;-72
2023/08/02 05:40:54;;;;;;;3.77;2.50;;;21.70;84.90;;;;;;5072338;28;20227;-71
2023/08/02 05:43:21;;;;;;;4.43;2.60;;;21.70;85.00;;;;;;5072462;28;20229;-72
2023/08/02 05:45:52;;;;;;;2.73;2.23;;;21.80;85.10;;;;;;5066262;28;20677;-72
2023/08/02 05:48:23;;;;;;;4.20;2.60;;;21.80;85.10;;;;;;5071224;28;20216;-71
2023/08/02 05:50:56;;;;;;;3.83;2.30;;;21.80;84.50;;;;;;5072198;28;20212;-72
2023/08/02 05:53:23;;;;;;;4.00;2.40;;;21.70;84.80;;;;;;5071032;28;20193;-72
